Time;durP1;ratioP1;P1;durP2;ratioP2;P2;SDS_P1;SDS_P2;PMS_P1;PMS_P2;Temp;Humidity;BMP_temperature;BMP_pressure;BME280_temperature;BME280_humidity;BME280_pressure;Samples;Min_cycle;Max_cycle;Signal;HPM_P1;HPM_P2
2022/06/01 00:01:20;;;;;;;;;;;;;;;11.11;100.00;99701.91;1728956;83;20129;-67
2022/06/01 00:03:48;;;;;;;;;;;;;;;11.08;100.00;99700.61;1729103;83;21689;-66
2022/06/01 00:06:15;;;;;;;;;;;;;;;11.02;100.00;99699.67;1728865;83;20117;-65
2022/06/01 00:08:41;;;;;;;;;;;;;;;10.98;100.00;99698.69;1728958;83;20215;-65
2022/06/01 00:11:09;;;;;;;;;;;;;;;10.92;100.00;99700.78;1729099;83;20169;-65
2022/06/01 00:13:36;;;;;;;;;;;;;;;10.84;100.00;99697.42;1729037;83;20149;-65
2022/06/01 00:16:05;;;;;;;;;;;;;;;10.77;100.00;99695.67;1728978;83;20128;-66
2022/06/01 00:18:31;;;;;;;;;;;;;;;10.69;100.00;99698.61;1729047;83;20141;-66
2022/06/01 00:20:57;;;;;;;;;;;;;;;10.64;100.00;99692.44;1728998;83;20209;-67
2022/06/01 00:23:24;;;;;;;;;;;;;;;10.59;100.00;99688.69;1728990;83;20176;-67
2022/06/01 00:25:51;;;;;;;;;;;;;;;10.55;100.00;99692.38;1729104;83;20193;-67
2022/06/01 00:28:17;;;;;;;;;;;;;;;10.50;100.00;99689.19;1728933;83;21145;-67
2022/06/01 00:30:44;;;;;;;;;;;;;;;10.46;100.00;99682.70;1728947;83;20105;-67
2022/06/01 00:33:11;;;;;;;;;;;;;;;10.41;100.00;99689.69;1729087;83;20554;-66
2022/06/01 00:35:38;;;;;;;;;;;;;;;10.37;100.00;99686.53;1728951;83;20128;-66
2022/06/01 00:38:04;;;;;;;;;;;;;;;10.33;100.00;99681.41;1729106;83;20113;-66
2022/06/01 00:40:32;;;;;;;;;;;;;;;10.28;100.00;99680.16;1728953;83;20168;-66
2022/06/01 00:43:00;;;;;;;;;;;;;;;10.24;100.00;99685.45;1728999;83;20456;-66
2022/06/01 00:45:28;;;;;;;;;;;;;;;10.22;100.00;99690.44;1729109;83;20122;-66
2022/06/01 00:47:54;;;;;;;;;;;;;;;10.17;100.00;99687.22;1728974;83;20177;-66
2022/06/01 00:50:30;;;;;;;;;;;;;;;10.16;100.00;99689.71;1702312;83;20145;-66
2022/06/01 00:53:02;;;;;;;;;;;;;;;10.15;100.00;99692.20;1727819;83;22224;-66
2022/06/01 00:55:32;;;;;;;;;;;;;;;10.12;100.00;99695.56;1723063;83;20112;-66
2022/06/01 00:58:02;;;;;;;;;;;;;;;10.10;100.00;99700.55;1729180;83;20124;-66
2022/06/01 01:00:29;;;;;;;;;;;;;;;10.08;100.00;99693.19;1729041;83;21468;-66
2022/06/01 01:02:57;;;;;;;;;;;;;;;10.06;100.00;99698.73;1729277;83;20451;-67
2022/06/01 01:05:23;;;;;;;;;;;;;;;10.05;100.00;99702.03;1726624;83;21143;-67
2022/06/01 01:07:51;;;;;;;;;;;;;;;10.05;100.00;99703.41;1708143;83;20125;-67
2022/06/01 01:10:17;;;;;;;;;;;;;;;10.06;100.00;99699.54;1705809;84;20203;-67
2022/06/01 01:12:59;;;;;;;;;;;;;;;10.09;100.00;99699.48;1705822;84;20146;-67
2022/06/01 01:15:30;;;;;;;;;;;;;;;10.11;100.00;99692.57;1705970;83;20465;-66
2022/06/01 01:17:58;;;;;;;;;;;;;;;10.17;100.00;99695.45;1705888;83;21255;-66
2022/06/01 01:20:25;;;;;;;;;;;;;;;10.23;100.00;99687.95;1705746;84;20111;-66
2022/06/01 01:23:17;;;;;;;;;;;;;;;10.32;100.00;99691.58;1705814;83;20476;-66
2022/06/01 01:25:43;;;;;;;;;;;;;;;10.44;100.00;99695.11;1702426;84;20119;-66
2022/06/01 01:28:09;;;;;;;;;;;;;;;10.58;100.00;99692.56;1704869;84;20476;-66
2022/06/01 01:30:40;;;;;;;;;;;;;;;10.72;100.00;99693.87;1705916;84;21137;-67
2022/06/01 01:33:09;;;;;;;;;;;;;;;10.86;100.00;99692.42;1705734;83;20127;-67
2022/06/01 01:35:36;;;;;;;;;;;;;;;11.01;100.00;99693.38;1705975;83;20122;-67
2022/06/01 01:38:06;;;;;;;;;;;;;;;11.14;100.00;99690.29;1705879;84;20163;-66
2022/06/01 01:40:34;;;;;;;;;;;;;;;11.27;100.00;99688.58;1705867;83;20149;-66
2022/06/01 01:43:02;;;;;;;;;;;;;;;11.38;100.00;99688.55;1705932;84;39347;-66
2022/06/01 01:45:30;;;;;;;;;;;;;;;11.48;100.00;99686.88;1705734;84;20134;-66
2022/06/01 01:47:57;;;;;;;;;;;;;;;11.57;100.00;99694.00;1705824;84;20138;-66
2022/06/01 01:50:24;;;;;;;;;;;;;;;11.66;100.00;99682.22;1705890;84;20114;-66
2022/06/01 01:52:51;;;;;;;;;;;;;;;11.72;100.00;99685.88;1705800;84;20138;-66
2022/06/01 01:55:29;;;;;;;;;;;;;;;11.78;100.00;99678.33;1705892;84;21209;-66
2022/06/01 01:58:07;;;;;;;;;;;;;;;11.83;100.00;99687.23;1705839;83;20117;-66
2022/06/01 02:00:39;;;;;;;;;;;;;;;11.85;100.00;99675.91;1706039;83;20150;-67
2022/06/01 02:03:16;;;;;;;;;;;;;;;11.88;100.00;99682.95;1706262;84;20118;-66
2022/06/01 02:06:04;;;;;;;;;;;;;;;11.89;100.00;99685.14;1705756;84;20169;-66
2022/06/01 02:08:46;;;;;;;;;;;;;;;11.89;100.00;99677.70;1674173;85;21174;-67
2022/06/01 02:14:38;;;;;;;;;;;;;;;11.87;100.00;99678.59;1676416;85;20087;-66
2022/06/01 02:17:07;;;;;;;;;;;;;;;11.83;100.00;99676.80;1676314;84;20103;-66
2022/06/01 02:19:39;;;;;;;;;;;;;;;11.81;100.00;99683.99;1676313;85;20084;-66
2022/06/01 02:22:06;;;;;;;;;;;;;;;11.79;100.00;99682.13;1676304;85;21277;-66
2022/06/01 02:24:32;;;;;;;;;;;;;;;11.74;100.00;99685.56;1676300;85;20134;-66
2022/06/01 02:26:58;;;;;;;;;;;;;;;11.72;100.00;99687.82;1676235;85;20079;-66
2022/06/01 02:29:29;;;;;;;;;;;;;;;11.69;100.00;99687.09;1676322;85;20637;-66
2022/06/01 02:31:55;;;;;;;;;;;;;;;11.66;100.00;99684.41;1676482;85;20115;-67
2022/06/01 02:34:22;;;;;;;;;;;;;;;11.62;100.00;99681.23;1676242;85;21148;-67
2022/06/01 02:36:48;;;;;;;;;;;;;;;11.59;100.00;99683.50;1676169;85;20390;-67
2022/06/01 02:39:16;;;;;;;;;;;;;;;11.56;100.00;99681.39;1676261;85;20113;-67
2022/06/01 02:44:27;;;;;;;;;;;;;;;11.56;100.00;99680.58;1676406;85;20099;-68
2022/06/01 02:46:53;;;;;;;;;;;;;;;11.57;100.00;99687.70;1676499;85;21110;-68
2022/06/01 02:49:20;;;;;;;;;;;;;;;11.59;100.00;99690.38;1676264;85;20087;-67
2022/06/01 02:51:49;;;;;;;;;;;;;;;11.61;100.00;99693.37;1676273;85;20139;-67
2022/06/01 02:54:16;;;;;;;;;;;;;;;11.64;100.00;99689.41;1676267;85;20657;-67
2022/06/01 02:56:43;;;;;;;;;;;;;;;11.70;100.00;99690.08;1676315;85;20151;-68
2022/06/01 02:59:09;;;;;;;;;;;;;;;11.75;100.00;99687.99;1676257;85;21163;-67
2022/06/01 03:01:36;;;;;;;;;;;;;;;11.79;100.00;99685.45;1676303;85;20123;-68
2022/06/01 03:04:05;;;;;;;;;;;;;;;11.83;100.00;99681.73;1676237;85;20146;-67
2022/06/01 03:06:32;;;;;;;;;;;;;;;11.87;100.00;99679.96;1674593;85;20655;-68
2022/06/01 03:08:59;;;;;;;;;;;;;;;11.92;100.00;99679.56;1661746;86;20079;-68
2022/06/01 03:11:26;;;;;;;;;;;;;;;11.96;100.00;99676.42;1661734;86;21155;-68
2022/06/01 03:13:52;;;;;;;;;;;;;;;12.00;100.00;99677.39;1661745;86;20183;-68
2022/06/01 03:16:19;;;;;;;;;;;;;;;12.04;100.00;99671.49;1662037;86;20141;-67
2022/06/01 03:18:45;;;;;;;;;;;;;;;12.08;100.00;99677.97;1661804;86;20087;-68
2022/06/01 03:21:12;;;;;;;;;;;;;;;12.12;100.00;99672.06;1661742;86;20120;-68
2022/06/01 03:23:38;;;;;;;;;;;;;;;12.18;100.00;99668.80;1661703;86;21164;-68
2022/06/01 03:26:05;;;;;;;;;;;;;;;12.24;100.00;99668.08;1661602;86;20459;-68
2022/06/01 03:28:32;;;;;;;;;;;;;;;12.30;100.00;99668.16;1661671;86;20155;-67
2022/06/01 03:30:58;;;;;;;;;;;;;;;12.36;100.00;99665.48;1660792;86;20075;-67
2022/06/01 03:33:26;;;;;;;;;;;;;;;12.43;100.00;99665.00;1675565;84;20158;-68
2022/06/01 03:35:52;;;;;;;;;;;;;;;12.52;100.00;99672.13;1694814;84;21729;-68
2022/06/01 03:38:19;;;;;;;;;;;;;;;12.66;100.00;99674.70;1691442;84;20812;-68
2022/06/01 03:40:46;;;;;;;;;;;;;;;12.78;100.00;99672.63;1692266;85;20142;-67
2022/06/01 03:43:12;;;;;;;;;;;;;;;12.87;100.00;99671.47;1692615;85;20185;-66
2022/06/01 03:46:02;;;;;;;;;;;;;;;12.95;100.00;99669.02;1692477;85;20123;-66
2022/06/01 03:48:32;;;;;;;;;;;;;;;13.01;100.00;99669.09;1691382;84;21178;-66
2022/06/01 03:50:58;;;;;;;;;;;;;;;13.07;100.00;99669.97;1692503;85;20466;-66
2022/06/01 03:53:25;;;;;;;;;;;;;;;13.11;100.00;99675.06;1692531;85;20126;-66
2022/06/01 03:55:52;;;;;;;;;;;;;;;13.14;100.00;99679.10;1674795;85;20145;-66
2022/06/01 03:58:21;;;;;;;;;;;;;;;13.19;100.00;99670.12;1692595;85;20126;-66
2022/06/01 04:00:48;;;;;;;;;;;;;;;13.28;100.00;99672.03;1692501;85;21137;-67
2022/06/01 04:03:15;;;;;;;;;;;;;;;13.38;100.00;99671.64;1692267;85;20107;-65
2022/06/01 04:05:41;;;;;;;;;;;;;;;13.49;100.00;99674.27;1691934;85;20195;-67
2022/06/01 04:08:07;;;;;;;;;;;;;;;13.56;100.00;99677.31;1691901;84;20134;-65
2022/06/01 04:10:35;;;;;;;;;;;;;;;13.64;100.00;99676.46;1692489;85;20155;-66
2022/06/01 04:13:02;;;;;;;;;;;;;;;13.72;100.00;99681.70;1692517;85;21179;-64
2022/06/01 04:15:29;;;;;;;;;;;;;;;13.78;99.36;99678.98;1692439;85;20107;-65
2022/06/01 04:17:57;;;;;;;;;;;;;;;13.82;99.38;99677.98;1692388;85;20114;-65
2022/06/01 04:20:23;;;;;;;;;;;;;;;13.88;98.72;99689.03;1692764;83;20122;-65
2022/06/01 04:22:54;;;;;;;;;;;;;;;13.94;98.37;99682.75;1692426;85;20191;-64
2022/06/01 04:25:19;;;;;;;;;;;;;;;14.02;97.94;99681.08;1692473;84;21164;-65
2022/06/01 04:27:46;;;;;;;;;;;;;;;14.11;97.80;99674.36;1692315;84;20143;-65
2022/06/01 04:30:15;;;;;;;;;;;;;;;14.24;97.48;99678.00;1692449;85;20174;-65
2022/06/01 04:32:43;;;;;;;;;;;;;;;14.37;96.75;99678.30;1692417;85;20644;-65
2022/06/01 04:35:10;;;;;;;;;;;;;;;14.52;96.88;99676.88;1692580;85;20119;-65
2022/06/01 04:37:36;;;;;;;;;;;;;;;14.65;95.39;99673.59;1692499;85;21093;-65
2022/06/01 04:40:04;;;;;;;;;;;;;;;14.74;94.71;99671.55;1692352;85;20178;-65
2022/06/01 04:42:31;;;;;;;;;;;;;;;14.79;93.75;99675.48;1692491;85;20147;-65
2022/06/01 04:44:58;;;;;;;;;;;;;;;14.86;93.77;99678.51;1692459;85;20170;-65
2022/06/01 04:47:26;;;;;;;;;;;;;;;14.93;93.04;99676.00;1692595;85;20114;-65
2022/06/01 04:49:52;;;;;;;;;;;;;;;14.97;92.03;99672.78;1692589;85;21790;-65
2022/06/01 04:52:19;;;;;;;;;;;;;;;15.02;92.03;99673.14;1692436;85;20114;-65
2022/06/01 04:54:46;;;;;;;;;;;;;;;15.07;90.30;99668.17;1692479;85;20147;-64
2022/06/01 04:57:12;;;;;;;;;;;;;;;15.13;90.58;99670.95;1692547;85;20147;-65
2022/06/01 04:59:38;;;;;;;;;;;;;;;15.20;89.80;99663.47;1692510;85;20138;-65
2022/06/01 05:02:06;;;;;;;;;;;;;;;15.28;89.66;99668.09;1692476;85;21153;-64
2022/06/01 05:04:33;;;;;;;;;;;;;;;15.40;89.85;99659.00;1692430;85;20131;-65
2022/06/01 05:07:00;;;;;;;;;;;;;;;15.52;89.10;99657.63;1692292;84;20126;-64
2022/06/01 05:09:27;;;;;;;;;;;;;;;15.60;87.70;99662.84;1692513;85;20219;-65
2022/06/01 05:11:54;;;;;;;;;;;;;;;15.65;86.70;99660.62;1692501;85;20472;-64
2022/06/01 05:14:20;;;;;;;;;;;;;;;15.69;86.96;99653.81;1692504;85;21073;-64
2022/06/01 05:16:47;;;;;;;;;;;;;;;15.76;86.70;99659.00;1692406;85;20104;-65
2022/06/01 05:19:14;;;;;;;;;;;;;;;15.85;87.56;99652.77;1692415;85;20154;-65
2022/06/01 05:21:41;;;;;;;;;;;;;;;15.97;87.46;99659.44;1674588;84;20115;-65
2022/06/01 05:24:08;;;;;;;;;;;;;;;16.09;87.33;99658.03;1692502;85;20114;-66
2022/06/01 05:26:34;;;;;;;;;;;;;;;16.19;87.12;99653.36;1692367;85;21151;-65
2022/06/01 05:29:01;;;;;;;;;;;;;;;16.30;87.71;99655.06;1692399;84;20126;-65
2022/06/01 05:31:28;;;;;;;;;;;;;;;16.44;88.16;99656.29;1692462;85;20115;-65
2022/06/01 05:33:54;;;;;;;;;;;;;;;16.57;87.99;99657.63;1692670;85;20766;-64
2022/06/01 05:36:20;;;;;;;;;;;;;;;16.68;87.45;99647.09;1692484;85;20147;-64
2022/06/01 05:38:47;;;;;;;;;;;;;;;16.79;86.16;99653.71;1692434;85;21146;-65
2022/06/01 05:41:14;;;;;;;;;;;;;;;16.88;85.39;99656.91;1692409;85;20178;-65
2022/06/01 05:43:41;;;;;;;;;;;;;;;16.95;85.79;99652.94;1692636;83;20126;-64
2022/06/01 05:46:09;;;;;;;;;;;;;;;17.03;84.83;99654.74;1692548;85;20127;-64
2022/06/01 05:48:35;;;;;;;;;;;;;;;17.13;84.98;99652.25;1692622;85;20166;-64
2022/06/01 05:51:02;;;;;;;;;;;;;;;17.24;85.80;99648.95;1692595;85;22072;-65
2022/06/01 05:53:30;;;;;;;;;;;;;;;17.37;86.29;99649.86;1692418;85;20126;-65
2022/06/01 05:55:56;;;;;;;;;;;;;;;17.51;85.71;99654.95;1692514;85;20485;-65
2022/06/01 05:58:25;;;;;;;;;;;;;;;17.63;85.83;99648.50;1692744;85;20457;-65
2022/06/01 06:00:53;;;;;;;;;;;;;;;17.76;85.00;99654.20;1692525;85;20174;-65
2022/06/01 06:03:23;;;;;;;;;;;;;;;17.87;85.47;99646.12;1696157;84;21355;-65
2022/06/01 06:08:36;;;;;;;;;;;;;;;18.12;85.00;99641.31;1696596;83;20514;-64
2022/06/01 06:11:03;;;;;;;;;;;;;;;18.24;84.28;99631.23;1696505;84;20186;-65
2022/06/01 06:13:29;;;;;;;;;;;;;;;18.34;85.43;99638.41;1696512;84;20130;-64
2022/06/01 06:15:56;;;;;;;;;;;;;;;18.48;85.23;99635.89;1696476;84;22062;-64
2022/06/01 06:18:23;;;;;;;;;;;;;;;18.61;85.20;99635.77;1696348;84;20157;-63
2022/06/01 06:20:50;;;;;;;;;;;;;;;18.70;85.45;99631.59;1681615;84;20379;-64
2022/06/01 06:23:17;;;;;;;;;;;;;;;18.83;85.11;99630.05;1696484;84;20127;-65
2022/06/01 06:25:45;;;;;;;;;;;;;;;18.93;85.64;99631.63;1696573;84;20473;-65
2022/06/01 06:28:12;;;;;;;;;;;;;;;19.04;84.07;99631.24;1696643;84;21815;-64
2022/06/01 06:30:38;;;;;;;;;;;;;;;19.14;84.03;99631.19;1696632;84;20150;-67
2022/06/01 06:33:07;;;;;;;;;;;;;;;19.25;84.11;99624.41;1695120;84;20085;-68
2022/06/01 06:35:34;;;;;;;;;;;;;;;19.35;84.86;99621.81;1696490;84;20135;-67
2022/06/01 06:38:01;;;;;;;;;;;;;;;19.45;82.99;99625.36;1696485;84;20154;-68
2022/06/01 06:40:27;;;;;;;;;;;;;;;19.52;83.25;99623.30;1696418;84;21068;-68
2022/06/01 06:42:53;;;;;;;;;;;;;;;19.59;84.37;99624.01;1696467;84;20118;-68
2022/06/01 06:45:20;;;;;;;;;;;;;;;19.67;83.84;99611.77;1694548;84;20153;-68
2022/06/01 06:47:47;;;;;;;;;;;;;;;19.75;83.96;99620.45;1695902;83;20381;-68
2022/06/01 06:50:18;;;;;;;;;;;;;;;19.90;84.67;99614.50;1696484;84;20470;-68
2022/06/01 06:52:45;;;;;;;;;;;;;;;20.07;84.70;99608.38;1699714;84;21981;-67
2022/06/01 06:55:11;;;;;;;;;;;;;;;20.22;83.12;99612.92;1696462;83;20143;-68
2022/06/01 06:57:39;;;;;;;;;;;;;;;20.36;83.31;99618.68;1696392;84;20114;-65
2022/06/01 07:00:08;;;;;;;;;;;;;;;20.52;82.14;99621.30;1676574;84;20151;-65
2022/06/01 07:02:36;;;;;;;;;;;;;;;20.58;80.46;99621.16;1696427;84;20493;-67
2022/06/01 07:05:05;;;;;;;;;;;;;;;20.61;79.39;99621.00;1696374;84;21142;-70
2022/06/01 07:07:32;;;;;;;;;;;;;;;20.60;78.47;99618.00;1696228;84;20473;-68
2022/06/01 07:09:58;;;;;;;;;;;;;;;20.65;81.50;99615.67;1696251;83;20143;-71
2022/06/01 07:12:24;;;;;;;;;;;;;;;20.81;81.11;99619.59;1680970;84;20436;-68
2022/06/01 07:14:52;;;;;;;;;;;;;;;20.95;81.18;99613.36;1683784;83;20149;-70
2022/06/01 07:17:18;;;;;;;;;;;;;;;21.09;79.23;99613.50;1680630;84;21135;-70
2022/06/01 07:19:44;;;;;;;;;;;;;;;21.16;79.53;99616.95;1679642;84;20171;-70
2022/06/01 07:22:11;;;;;;;;;;;;;;;21.26;77.77;99616.28;1671389;84;20092;-68
2022/06/01 07:24:39;;;;;;;;;;;;;;;21.30;77.21;99612.33;1667277;86;20140;-69
2022/06/01 07:27:06;;;;;;;;;;;;;;;21.35;78.33;99613.97;1686986;83;20160;-70
2022/06/01 07:29:33;;;;;;;;;;;;;;;21.48;78.30;99612.45;1696146;84;21209;-70
2022/06/01 07:32:00;;;;;;;;;;;;;;;21.64;77.91;99612.97;1684796;84;20097;-68
2022/06/01 07:34:27;;;;;;;;;;;;;;;21.72;76.80;99611.83;1696746;83;20089;-69
2022/06/01 07:43:05;;;;;;;;;;;;;;;21.75;75.42;99605.47;1696751;84;20464;-68
2022/06/01 07:44:57;;;;;;;;;;;;;;;22.01;76.22;99600.80;1702883;84;20477;-69
2022/06/01 07:47:20;;;;;;;;;;;;;;;22.23;77.80;99596.95;1696240;84;20102;-68
2022/06/01 07:49:47;;;;;;;;;;;;;;;22.51;77.44;99601.05;1696487;84;20677;-69
2022/06/01 07:52:13;;;;;;;;;;;;;;;22.69;73.88;99601.28;1696712;84;20153;-69
2022/06/01 07:54:41;;;;;;;;;;;;;;;22.70;70.08;99598.69;1696413;83;21100;-68
2022/06/01 07:57:09;;;;;;;;;;;;;;;22.54;70.86;99600.23;1676391;84;20175;-68
2022/06/01 07:59:35;;;;;;;;;;;;;;;22.50;71.37;99599.45;1696571;84;20211;-70
2022/06/01 08:02:09;;;;;;;;;;;;;;;22.52;73.40;99598.46;1696168;84;20146;-69
2022/06/01 08:04:33;;;;;;;;;;;;;;;22.62;73.57;99593.47;1694108;84;20151;-70
2022/06/01 08:07:00;;;;;;;;;;;;;;;22.81;74.29;99592.34;1696388;84;21091;-69
2022/06/01 08:09:26;;;;;;;;;;;;;;;23.07;74.81;99591.19;1700268;83;20089;-68
2022/06/01 08:14:37;;;;;;;;;;;;;;;23.54;69.06;99587.20;1697814;83;20085;-69
2022/06/01 08:17:04;;;;;;;;;;;;;;;23.79;70.29;99587.13;1722338;83;20077;-69
2022/06/01 08:19:31;;;;;;;;;;;;;;;24.08;67.54;99592.86;1722554;82;21220;-70
2022/06/01 08:21:58;;;;;;;;;;;;;;;24.38;67.78;99588.14;1722248;82;20431;-70
2022/06/01 08:24:24;;;;;;;;;;;;;;;24.55;67.90;99585.86;1722291;83;20089;-70
2022/06/01 08:26:51;;;;;;;;;;;;;;;24.82;63.76;99588.11;1722369;82;20121;-70
2022/06/01 08:29:19;;;;;;;;;;;;;;;24.89;63.21;99586.03;1722424;83;20097;-70
2022/06/01 08:31:45;;;;;;;;;;;;;;;25.06;62.59;99580.73;1722353;82;21136;-69
2022/06/01 08:34:15;;;;;;;;;;;;;;;25.14;63.64;99584.48;1720157;83;20157;-69
2022/06/01 08:36:40;;;;;;;;;;;;;;;25.17;63.17;99581.45;1717006;83;20106;-69
2022/06/01 08:39:06;;;;;;;;;;;;;;;25.20;63.46;99582.03;1717071;83;20158;-70
2022/06/01 08:41:35;;;;;;;;;;;;;;;25.38;63.29;99574.86;1717237;83;20140;-70
2022/06/01 08:44:04;;;;;;;;;;;;;;;25.41;60.27;99576.23;1717234;83;21253;-69
2022/06/01 08:46:31;;;;;;;;;;;;;;;25.20;58.55;99573.61;1717130;83;20178;-69
2022/06/01 08:49:00;;;;;;;;;;;;;;;25.04;61.68;99574.73;1717228;83;20149;-71
2022/06/01 08:51:28;;;;;;;;;;;;;;;25.14;60.00;99574.66;1717124;83;20118;-70
2022/06/01 08:53:54;;;;;;;;;;;;;;;25.17;58.06;99570.22;1717230;83;20113;-71
2022/06/01 08:56:36;;;;;;;;;;;;;;;25.28;58.45;99577.95;1716542;83;21190;-70
2022/06/01 08:59:17;;;;;;;;;;;;;;;25.47;61.01;99573.14;1717019;83;20387;-70
2022/06/01 09:01:48;;;;;;;;;;;;;;;25.87;59.87;99572.17;1717175;83;20165;-69
2022/06/01 09:04:28;;;;;;;;;;;;;;;25.79;57.92;99570.66;1717437;83;20117;-69
2022/06/01 09:07:18;;;;;;;;;;;;;;;25.48;59.49;99567.71;1717225;83;20130;-69
2022/06/01 09:09:54;;;;;;;;;;;;;;;25.14;60.93;99568.23;1704354;83;21250;-71
2022/06/01 09:12:21;;;;;;;;;;;;;;;25.29;61.60;99566.30;1702761;84;20131;-70
2022/06/01 09:14:49;;;;;;;;;;;;;;;25.76;61.71;99567.27;1681537;84;20174;-68
2022/06/01 09:17:15;;;;;;;;;;;;;;;26.29;59.43;99569.45;1672914;85;20095;-69
2022/06/01 09:22:38;;;;;;;;;;;;;;;26.83;54.24;99561.87;1679977;85;21893;-71
2022/06/01 09:25:08;;;;;;;;;;;;;;;26.93;53.46;99565.74;1667351;85;20099;-69
2022/06/01 09:27:40;;;;;;;;;;;;;;;27.22;54.69;99568.30;1675125;85;20424;-69
2022/06/01 09:30:33;;;;;;;;;;;;;;;27.29;53.67;99565.97;1663193;85;20166;-68
2022/06/01 09:33:03;;;;;;;;;;;;;;;27.08;51.06;99555.88;1691691;83;20458;-67
2022/06/01 09:35:33;;;;;;;;;;;;;;;26.73;53.54;99560.61;1692944;85;21860;-66
2022/06/01 09:38:06;;;;;;;;;;;;;;;26.56;53.71;99556.86;1692458;83;20432;-69
2022/06/01 09:40:34;;;;;;;;;;;;;;;26.49;54.92;99561.97;1691401;84;20123;-68
2022/06/01 09:43:02;;;;;;;;;;;;;;;26.74;56.54;99558.78;1692504;85;20103;-68
2022/06/01 09:45:53;;;;;;;;;;;;;;;27.17;55.63;99556.72;1692556;85;20131;-69
2022/06/01 09:48:30;;;;;;;;;;;;;;;27.47;51.66;99552.37;1692511;83;21200;-65
2022/06/01 09:51:10;;;;;;;;;;;;;;;27.64;53.72;99550.48;1674543;85;20087;-67
2022/06/01 09:53:46;;;;;;;;;;;;;;;27.82;53.08;99545.89;1676275;85;20087;-68
2022/06/01 09:56:18;;;;;;;;;;;;;;;28.18;52.75;99558.06;1692810;85;20150;-68
2022/06/01 10:07:07;;;;;;;;;;;;;;;28.34;46.96;99554.51;1692630;85;20087;-69
2022/06/01 10:09:34;;;;;;;;;;;;;;;28.19;45.68;99548.98;1693608;84;21011;-70
2022/06/01 10:12:05;;;;;;;;;;;;;;;28.06;48.11;99543.81;1695679;84;20465;-71
2022/06/01 10:14:34;;;;;;;;;;;;;;;28.11;46.46;99545.51;1691606;84;21075;-70
2022/06/01 10:17:21;;;;;;;;;;;;;;;28.11;45.90;99547.53;1695224;84;20143;-71
2022/06/01 10:19:54;;;;;;;;;;;;;;;28.09;44.54;99538.09;1695476;84;20474;-71
2022/06/01 10:22:24;;;;;;;;;;;;;;;28.07;44.46;99540.55;1695487;84;20635;-72
2022/06/01 10:25:00;;;;;;;;;;;;;;;28.10;45.03;99538.89;1695492;84;20139;-71
2022/06/01 10:27:36;;;;;;;;;;;;;;;28.16;48.09;99536.53;1691776;84;21802;-70
2022/06/01 10:30:07;;;;;;;;;;;;;;;28.31;46.47;99539.85;1695680;84;20588;-69
2022/06/01 10:32:42;;;;;;;;;;;;;;;28.33;45.15;99535.19;1695427;84;20203;-70
2022/06/01 10:35:15;;;;;;;;;;;;;;;28.35;46.75;99534.13;1708035;84;20098;-69
2022/06/01 10:38:04;;;;;;;;;;;;;;;28.29;46.02;99530.26;1707796;84;20123;-68
2022/06/01 10:40:43;;;;;;;;;;;;;;;28.25;44.91;99531.75;1708131;84;21157;-72
2022/06/01 10:43:16;;;;;;;;;;;;;;;28.29;45.20;99528.23;1707939;84;20099;-73
2022/06/01 10:45:49;;;;;;;;;;;;;;;28.40;44.80;99531.59;1707974;84;20535;-72
2022/06/01 10:48:25;;;;;;;;;;;;;;;28.37;45.60;99527.44;1708194;84;20091;-72
2022/06/01 10:50:55;;;;;;;;;;;;;;;28.36;46.21;99515.96;1708409;84;20158;-72
2022/06/01 10:53:40;;;;;;;;;;;;;;;28.53;46.02;99513.36;1708007;84;21257;-72
2022/06/01 10:56:07;;;;;;;;;;;;;;;28.59;45.17;99513.81;1672632;85;20114;-72
2022/06/01 10:58:33;;;;;;;;;;;;;;;28.63;46.54;99508.70;1708123;84;20485;-72
2022/06/01 11:01:15;;;;;;;;;;;;;;;28.76;46.51;99508.19;1673854;85;20749;-72
2022/06/01 11:03:51;;;;;;;;;;;;;;;28.77;47.71;99501.30;1673536;85;20114;-72
2022/06/01 11:06:38;;;;;;;;;;;;;;;28.84;45.71;99499.13;1674962;85;21186;-72
2022/06/01 11:09:28;;;;;;;;;;;;;;;28.92;45.67;99501.14;1709489;83;20126;-71
2022/06/01 11:12:03;;;;;;;;;;;;;;;29.03;44.91;99501.66;1730674;83;20428;-69
2022/06/01 11:14:43;;;;;;;;;;;;;;;29.22;44.97;99497.95;1730630;83;20125;-73
2022/06/01 11:17:14;;;;;;;;;;;;;;;29.29;44.80;99494.14;1730771;83;20125;-74
2022/06/01 11:20:01;;;;;;;;;;;;;;;29.33;46.04;99491.22;1730651;83;21331;-71
2022/06/01 11:22:44;;;;;;;;;;;;;;;29.46;44.10;99495.70;1730872;83;20113;-71
2022/06/01 11:25:35;;;;;;;;;;;;;;;29.29;44.66;99492.73;1728674;83;20145;-73
2022/06/01 11:28:30;;;;;;;;;;;;;;;29.26;45.59;99495.03;1659892;86;20626;-72
2022/06/01 11:31:24;;;;;;;;;;;;;;;29.13;46.09;99499.81;1634522;87;20442;-71
2022/06/01 11:33:54;;;;;;;;;;;;;;;28.96;45.11;99503.88;1656512;86;21953;-70
2022/06/01 11:36:30;;;;;;;;;;;;;;;28.91;46.19;99498.13;1673792;85;20122;-70
2022/06/01 11:39:12;;;;;;;;;;;;;;;28.97;46.77;99498.40;1729937;83;20121;-67
2022/06/01 11:41:40;;;;;;;;;;;;;;;28.85;45.47;99499.31;1726120;83;20203;-71
2022/06/01 11:44:09;;;;;;;;;;;;;;;28.72;45.79;99501.21;1693249;85;20123;-67
2022/06/01 11:46:52;;;;;;;;;;;;;;;28.72;46.32;99494.77;1711053;83;21138;-70
2022/06/01 11:49:34;;;;;;;;;;;;;;;28.91;46.06;99493.28;1717372;83;20117;-69
2022/06/01 11:52:25;;;;;;;;;;;;;;;28.89;44.72;99485.06;1716412;83;20200;-67
2022/06/01 11:55:07;;;;;;;;;;;;;;;28.90;46.00;99492.30;1716753;83;20125;-67
2022/06/01 11:57:47;;;;;;;;;;;;;;;29.18;46.68;99487.97;1712350;83;20157;-71
2022/06/01 12:00:35;;;;;;;;;;;;;;;29.57;45.19;99497.63;1720045;83;21071;-71
2022/06/01 12:03:24;;;;;;;;;;;;;;;29.80;45.76;99492.34;1722108;83;20113;-72
2022/06/01 12:06:09;;;;;;;;;;;;;;;29.88;44.17;99492.93;1714945;83;20117;-71
2022/06/01 12:08:43;;;;;;;;;;;;;;;29.87;44.43;99487.10;1708096;83;20146;-72
2022/06/01 12:11:14;;;;;;;;;;;;;;;29.82;43.39;99484.81;1699504;83;20442;-71
2022/06/01 12:13:44;;;;;;;;;;;;;;;29.68;43.39;99486.02;1702207;83;21853;-74
2022/06/01 12:16:20;;;;;;;;;;;;;;;29.39;44.67;99481.75;1701801;83;20434;-72
2022/06/01 12:19:09;;;;;;;;;;;;;;;29.41;44.54;99485.55;1716768;83;20432;-71
2022/06/01 12:21:46;;;;;;;;;;;;;;;29.46;43.19;99484.39;1703718;83;20143;-72
2022/06/01 12:30:14;;;;;;;;;;;;;;;30.31;43.65;99468.40;1702756;83;20597;-73
2022/06/01 12:33:00;;;;;;;;;;;;;;;30.52;43.20;99470.56;1702713;83;20120;-72
2022/06/01 12:35:32;;;;;;;;;;;;;;;30.72;42.82;99466.08;1688190;83;20199;-73
2022/06/01 12:38:01;;;;;;;;;;;;;;;30.97;43.10;99459.59;1699599;83;20448;-73
2022/06/01 12:40:28;;;;;;;;;;;;;;;31.01;40.85;99457.42;1700279;83;21874;-72
2022/06/01 12:42:58;;;;;;;;;;;;;;;30.59;41.38;99453.20;1701247;83;20160;-74
2022/06/01 12:45:28;;;;;;;;;;;;;;;30.23;41.74;99464.20;1712491;83;20477;-71
2022/06/01 12:48:07;;;;;;;;;;;;;;;30.13;41.36;99456.20;1704028;83;21262;-72
2022/06/01 12:50:49;;;;;;;;;;;;;;;30.12;41.67;99453.20;1700961;83;20144;-74
2022/06/01 12:53:19;;;;;;;;;;;;;;;30.30;43.73;99449.03;1701413;83;21163;-72
2022/06/01 12:55:47;;;;;;;;;;;;;;;30.50;41.43;99443.94;1699247;83;20122;-74
2022/06/01 12:58:20;;;;;;;;;;;;;;;30.56;42.62;99440.70;1702131;83;20154;-73
2022/06/01 13:00:54;;;;;;;;;;;;;;;30.82;42.26;99431.56;1701809;83;20101;-72
2022/06/01 13:03:22;;;;;;;;;;;;;;;30.83;42.12;99433.94;1702555;83;20419;-72
2022/06/01 13:05:52;;;;;;;;;;;;;;;30.83;40.37;99431.10;1700052;82;21269;-71
2022/06/01 13:08:25;;;;;;;;;;;;;;;30.67;40.24;99435.48;1706207;82;20150;-72
2022/06/01 13:10:52;;;;;;;;;;;;;;;30.62;41.10;99431.81;1702860;83;20436;-71
2022/06/01 13:13:23;;;;;;;;;;;;;;;30.62;40.38;99426.80;1693579;81;20430;-71
2022/06/01 13:16:04;;;;;;;;;;;;;;;30.69;41.67;99427.95;1665739;84;20114;-71
2022/06/01 13:18:41;;;;;;;;;;;;;;;30.91;39.85;99420.94;1684416;84;20073;-72
2022/06/01 13:21:27;;;;;;;;;;;;;;;30.72;39.69;99423.58;1700841;84;20099;-71
2022/06/01 13:23:55;;;;;;;;;;;;;;;30.57;41.23;99424.50;1702177;84;20312;-72
2022/06/01 13:26:29;;;;;;;;;;;;;;;30.32;41.33;99420.43;1700963;84;20266;-74
2022/06/01 13:29:00;;;;;;;;;;;;;;;30.28;40.62;99404.80;1689685;84;20089;-74
2022/06/01 13:31:27;;;;;;;;;;;;;;;30.38;39.95;99412.16;1697784;83;21131;-73
2022/06/01 13:33:53;;;;;;;;;;;;;;;30.46;41.37;99411.48;1674358;84;20773;-73